createdAt,value
2023-02-12T00:01:45.062Z,8.13
2023-02-12T00:04:11.862Z,6.80
2023-02-12T00:06:39.747Z,6.88
2023-02-12T00:09:06.327Z,7.18
2023-02-12T00:11:33.015Z,6.70
2023-02-12T00:14:02.244Z,7.27
2023-02-12T00:16:29.383Z,7.75
2023-02-12T00:18:57.446Z,7.93
2023-02-12T00:21:24.796Z,7.43
2023-02-12T00:23:51.444Z,7.55
2023-02-12T00:26:21.478Z,7.13
2023-02-12T00:28:48.126Z,7.97
2023-02-12T00:31:27.100Z,8.10
2023-02-12T00:33:53.869Z,7.88
2023-02-12T00:36:23.994Z,7.65
2023-02-12T00:38:54.829Z,7.67
2023-02-12T00:41:23.035Z,7.40
2023-02-12T00:43:50.718Z,9.00
2023-02-12T00:46:17.632Z,8.43
2023-02-12T00:48:44.575Z,7.97
2023-02-12T00:51:11.447Z,8.03
2023-02-12T00:53:38.168Z,7.85
2023-02-12T00:56:05.368Z,8.18
2023-02-12T00:58:32.217Z,9.15
2023-02-12T01:00:58.814Z,8.88
2023-02-12T01:03:25.847Z,8.50
2023-02-12T01:05:53.333Z,7.88
2023-02-12T01:08:20.210Z,8.70
2023-02-12T01:10:55.950Z,9.82
2023-02-12T01:13:22.907Z,9.60
2023-02-12T01:16:01.241Z,10.60
2023-02-12T01:18:27.780Z,9.07
2023-02-12T01:20:54.318Z,10.48
2023-02-12T01:23:21.103Z,8.98
2023-02-12T01:25:49.973Z,8.95
2023-02-12T01:28:16.730Z,8.53
2023-02-12T01:30:43.341Z,9.80
2023-02-12T01:33:10.001Z,8.20
2023-02-12T01:35:38.042Z,9.93
2023-02-12T01:38:04.575Z,9.88
2023-02-12T01:40:31.430Z,9.43
2023-02-12T01:43:01.882Z,8.55
2023-02-12T01:45:28.545Z,10.70
2023-02-12T01:47:55.277Z,9.23
2023-02-12T01:50:21.872Z,8.63
2023-02-12T01:52:54.290Z,9.23
2023-02-12T01:55:21.647Z,8.60
2023-02-12T01:57:49.181Z,9.32
2023-02-12T02:00:20.074Z,10.23
2023-02-12T02:02:55.240Z,10.00
2023-02-12T02:05:33.813Z,9.27
2023-02-12T02:08:00.687Z,9.27
2023-02-12T02:10:27.303Z,9.60
2023-02-12T02:13:12.523Z,9.85
2023-02-12T02:15:42.135Z,10.32
2023-02-12T02:18:16.885Z,10.07
2023-02-12T02:20:58.857Z,10.50
2023-02-12T02:23:25.538Z,10.20
2023-02-12T02:26:01.146Z,10.70
2023-02-12T02:28:57.154Z,10.55
2023-02-12T02:31:30.746Z,10.27
2023-02-12T02:34:34.993Z,11.05
2023-02-12T02:37:18.038Z,11.18
2023-02-12T02:39:54.262Z,10.52
2023-02-12T02:42:29.768Z,10.13
2023-02-12T02:45:06.432Z,10.03
2023-02-12T02:47:39.866Z,11.30
2023-02-12T02:50:11.609Z,10.68
2023-02-12T02:52:45.273Z,10.63
2023-02-12T02:55:14.888Z,11.07
2023-02-12T02:57:41.295Z,10.37
2023-02-12T03:00:12.478Z,10.48
2023-02-12T03:02:43.100Z,11.23
2023-02-12T03:05:15.274Z,11.02
2023-02-12T03:07:47.974Z,10.98
2023-02-12T03:10:19.528Z,11.77
2023-02-12T03:13:09.681Z,11.38
2023-02-12T03:15:42.554Z,11.05
2023-02-12T03:18:16.230Z,9.82
2023-02-12T03:20:47.539Z,10.85
2023-02-12T03:23:19.546Z,11.63
2023-02-12T03:26:01.485Z,10.38
2023-02-12T03:28:34.441Z,10.77
2023-02-12T03:31:10.097Z,10.82
2023-02-12T03:33:54.607Z,10.82
2023-02-12T03:36:34.654Z,11.53
2023-02-12T03:39:12.166Z,11.77
2023-02-12T03:41:49.102Z,11.15
2023-02-12T03:44:27.571Z,10.40
2023-02-12T03:47:03.128Z,11.38
2023-02-12T03:49:36.610Z,10.13
2023-02-12T03:52:04.565Z,12.20
2023-02-12T03:54:31.941Z,13.07
2023-02-12T03:57:10.472Z,11.32
2023-02-12T03:59:39.572Z,11.20
2023-02-12T04:02:07.414Z,11.30
2023-02-12T04:04:34.902Z,11.45
2023-02-12T04:07:01.948Z,9.82
2023-02-12T04:09:29.441Z,11.73
2023-02-12T04:12:15.898Z,11.80
2023-02-12T04:14:49.938Z,11.17
2023-02-12T04:17:40.673Z,12.48
2023-02-12T04:20:25.289Z,12.82
2023-02-12T04:23:16.978Z,11.63
2023-02-12T04:26:10.933Z,11.48
2023-02-12T04:29:01.905Z,11.93
2023-02-12T04:31:51.007Z,11.18
2023-02-12T04:34:44.448Z,11.13
2023-02-12T04:37:22.052Z,12.82
2023-02-12T04:39:49.853Z,10.50
2023-02-12T04:42:16.630Z,10.57
2023-02-12T04:44:44.472Z,11.93
2023-02-12T04:47:13.763Z,12.50
2023-02-12T04:49:40.908Z,11.45
2023-02-12T04:52:08.468Z,11.98
2023-02-12T04:54:35.504Z,12.17
2023-02-12T04:57:02.181Z,12.48
2023-02-12T04:59:28.768Z,12.60
2023-02-12T05:01:55.410Z,12.55
2023-02-12T05:04:22.042Z,11.45
2023-02-12T05:06:48.669Z,12.10
2023-02-12T05:09:18.523Z,11.82
2023-02-12T05:11:45.751Z,12.02
2023-02-12T05:14:12.659Z,12.18
2023-02-12T05:16:39.363Z,11.93
2023-02-12T05:19:06.021Z,11.77
2023-02-12T05:21:32.595Z,13.85
2023-02-12T05:24:00.886Z,10.65
2023-02-12T05:26:27.486Z,13.45
2023-02-12T05:28:54.038Z,12.77
2023-02-12T05:31:22.327Z,8.97
2023-02-12T05:33:50.258Z,10.52
2023-02-12T05:36:20.892Z,9.70
2023-02-12T05:38:48.130Z,10.52
2023-02-12T05:41:21.966Z,11.20
2023-02-12T05:43:49.948Z,11.30
2023-02-12T05:46:18.459Z,11.55
2023-02-12T05:48:45.816Z,12.05
2023-02-12T05:51:15.317Z,12.00
2023-02-12T05:53:42.569Z,12.10
2023-02-12T05:56:10.283Z,11.00
2023-02-12T05:58:37.121Z,11.77
2023-02-12T06:01:08.937Z,12.70
2023-02-12T06:03:35.657Z,12.60
2023-02-12T06:06:02.293Z,12.85
2023-02-12T06:08:28.775Z,12.70
2023-02-12T06:10:55.330Z,12.63
2023-02-12T06:13:21.880Z,13.10
2023-02-12T06:15:48.514Z,11.88
2023-02-12T06:18:15.452Z,13.40
2023-02-12T06:20:42.235Z,13.40
2023-02-12T06:23:08.834Z,13.07
2023-02-12T06:25:35.421Z,13.13
2023-02-12T06:28:02.099Z,14.00
2023-02-12T06:30:28.775Z,13.85
2023-02-12T06:32:55.285Z,13.50
2023-02-12T06:35:21.836Z,13.70
2023-02-12T06:37:48.389Z,13.55
2023-02-12T06:40:15.113Z,13.25
2023-02-12T06:42:41.769Z,13.48
2023-02-12T06:45:08.737Z,12.27
2023-02-12T06:47:35.419Z,13.10
2023-02-12T06:50:01.897Z,12.85
2023-02-12T06:52:29.416Z,12.18
2023-02-12T06:54:56.161Z,13.57
2023-02-12T06:57:22.987Z,12.70
2023-02-12T06:59:50.198Z,13.32
2023-02-12T07:02:16.878Z,11.90
2023-02-12T07:04:43.309Z,10.95
2023-02-12T07:07:10.017Z,12.10
2023-02-12T07:09:36.621Z,12.87
2023-02-12T07:12:03.596Z,9.32
2023-02-12T07:14:30.169Z,11.18
2023-02-12T07:16:57.604Z,13.20
2023-02-12T07:19:24.323Z,10.98
2023-02-12T07:21:51.042Z,12.10
2023-02-12T07:24:18.358Z,13.40
2023-02-12T07:26:45.030Z,12.00
2023-02-12T07:29:12.646Z,9.48
2023-02-12T07:31:41.567Z,10.85
2023-02-12T07:34:08.216Z,12.10
2023-02-12T07:36:34.826Z,12.02
2023-02-12T07:39:01.700Z,12.00
2023-02-12T07:41:34.149Z,11.80
2023-02-12T07:44:07.029Z,10.55
2023-02-12T07:46:35.947Z,11.40
2023-02-12T07:49:05.431Z,11.55
2023-02-12T07:51:33.866Z,11.57
2023-02-12T07:54:01.445Z,11.95
2023-02-12T07:56:32.373Z,10.82
2023-02-12T07:59:02.435Z,11.63
2023-02-12T08:01:34.656Z,11.35
2023-02-12T08:04:03.503Z,11.45
2023-02-12T08:06:32.569Z,10.68
2023-02-12T08:09:02.155Z,11.73
2023-02-12T08:11:30.252Z,11.03
2023-02-12T08:13:58.115Z,11.75
2023-02-12T08:16:26.450Z,10.98
2023-02-12T08:18:54.288Z,12.30
2023-02-12T08:21:23.162Z,10.70
2023-02-12T08:23:50.769Z,11.00
2023-02-12T08:26:21.649Z,10.50
2023-02-12T08:28:52.373Z,10.63
2023-02-12T08:31:23.307Z,10.27
2023-02-12T08:33:51.546Z,9.88
2023-02-12T08:36:20.683Z,10.30
2023-02-12T08:38:48.060Z,10.70
2023-02-12T08:41:21.734Z,8.50
2023-02-12T08:43:49.452Z,9.52
2023-02-12T08:46:15.985Z,10.57
2023-02-12T08:48:43.302Z,9.87
2023-02-12T08:51:19.196Z,10.25
2023-02-12T08:53:47.802Z,8.98
2023-02-12T08:56:17.508Z,10.40
2023-02-12T08:58:44.988Z,9.48
2023-02-12T09:01:13.982Z,10.20
2023-02-12T09:03:40.630Z,10.00
2023-02-12T09:06:09.259Z,10.02
2023-02-12T09:08:37.799Z,10.55
2023-02-12T09:11:08.316Z,9.45
2023-02-12T09:13:35.818Z,9.77
2023-02-12T09:16:04.685Z,11.15
2023-02-12T09:18:32.119Z,11.02
2023-02-12T09:21:08.223Z,9.10
2023-02-12T09:23:35.584Z,10.93
2023-02-12T09:26:09.733Z,10.07
2023-02-12T09:28:37.297Z,10.70
2023-02-12T09:31:08.671Z,10.18
2023-02-12T09:33:35.888Z,11.02
2023-02-12T09:36:04.922Z,11.32
2023-02-12T09:38:31.903Z,10.97
2023-02-12T09:41:17.388Z,10.60
2023-02-12T09:44:02.442Z,11.15
2023-02-12T09:46:35.113Z,11.57
2023-02-12T09:49:09.725Z,11.20
2023-02-12T09:51:38.541Z,12.33
2023-02-12T09:54:17.249Z,11.73
2023-02-12T09:56:49.646Z,11.15
2023-02-12T09:59:33.715Z,12.00
2023-02-12T10:02:00.493Z,13.10
2023-02-12T10:04:28.441Z,12.53
2023-02-12T10:07:01.601Z,11.20
2023-02-12T10:09:42.140Z,11.75
2023-02-12T10:12:34.455Z,13.43
2023-02-12T10:15:07.382Z,13.98
2023-02-12T10:17:38.357Z,13.50
2023-02-12T10:20:23.851Z,13.18
2023-02-12T10:23:14.084Z,14.55
2023-02-12T10:25:54.859Z,13.25
2023-02-12T10:28:27.584Z,13.75
2023-02-12T10:31:04.536Z,13.13
2023-02-12T10:33:37.793Z,13.18
2023-02-12T10:36:24.482Z,13.70
2023-02-12T10:38:57.691Z,12.82
2023-02-12T10:41:27.367Z,12.13
2023-02-12T10:43:53.985Z,12.30
2023-02-12T10:46:20.606Z,11.85
2023-02-12T10:48:54.008Z,12.38
2023-02-12T10:51:40.007Z,12.45
2023-02-12T10:54:33.117Z,10.82
2023-02-12T10:57:08.829Z,12.77
2023-02-12T10:59:35.969Z,12.35
2023-02-12T11:02:03.238Z,13.13
2023-02-12T11:04:33.365Z,12.43
2023-02-12T11:07:05.986Z,11.65
2023-02-12T11:09:37.081Z,12.27
2023-02-12T11:12:03.974Z,13.10
2023-02-12T11:14:31.068Z,13.23
2023-02-12T11:17:01.481Z,12.10
2023-02-12T11:19:31.100Z,12.35
2023-02-12T11:22:19.421Z,12.17
2023-02-12T11:24:47.208Z,12.93
2023-02-12T11:27:16.747Z,12.63
2023-02-12T11:29:44.634Z,12.63
2023-02-12T11:32:19.680Z,12.48
2023-02-12T11:35:06.933Z,13.40
2023-02-12T11:37:37.165Z,12.32
2023-02-12T11:40:04.431Z,12.13
2023-02-12T11:42:37.668Z,12.20
2023-02-12T11:45:04.959Z,11.95
2023-02-12T11:47:35.596Z,13.57
2023-02-12T11:50:15.920Z,12.90
2023-02-12T11:52:43.000Z,11.05
2023-02-12T11:55:24.218Z,10.68
2023-02-12T11:58:02.970Z,11.73
2023-02-12T12:00:36.002Z,11.73
2023-02-12T12:03:34.603Z,7.53
2023-02-12T12:06:19.691Z,9.77
2023-02-12T12:09:05.378Z,11.20
2023-02-12T12:11:41.541Z,11.20
2023-02-12T12:14:31.888Z,10.47
2023-02-12T12:17:30.133Z,10.38
2023-02-12T12:20:06.877Z,10.05
2023-02-12T12:22:46.868Z,9.65
2023-02-12T12:25:27.358Z,11.23
2023-02-12T12:28:08.559Z,8.07
2023-02-12T12:31:03.783Z,9.82
2023-02-12T12:33:41.745Z,9.27
2023-02-12T12:36:14.497Z,10.52
2023-02-12T12:38:59.602Z,10.52
2023-02-12T12:42:03.026Z,9.27
2023-02-12T12:44:51.141Z,9.75
2023-02-12T12:47:54.922Z,10.52
2023-02-12T12:50:30.286Z,7.20
2023-02-12T12:53:27.132Z,8.80
2023-02-12T12:55:59.827Z,9.90
2023-02-12T12:58:29.342Z,10.32
2023-02-12T13:01:23.569Z,10.25
2023-02-12T13:04:39.954Z,10.15
2023-02-12T13:07:06.413Z,8.65
2023-02-12T13:10:01.707Z,8.83
2023-02-12T13:12:40.353Z,9.07
2023-02-12T13:15:14.470Z,8.80
2023-02-12T13:17:41.546Z,9.75
2023-02-12T13:20:14.131Z,6.07
2023-02-12T13:22:53.463Z,7.80
2023-02-12T13:25:31.993Z,6.38
2023-02-12T13:28:02.663Z,9.10
2023-02-12T13:30:44.759Z,8.38
2023-02-12T13:33:23.369Z,8.43
2023-02-12T13:35:55.600Z,8.20
2023-02-12T13:38:34.863Z,7.90
2023-02-12T13:41:10.767Z,9.25
2023-02-12T13:43:46.278Z,9.73
2023-02-12T13:46:31.794Z,9.65
2023-02-12T13:48:58.589Z,9.73
2023-02-12T13:51:25.227Z,8.25
2023-02-12T13:54:16.407Z,9.07
2023-02-12T13:56:49.992Z,7.95
2023-02-12T13:59:34.409Z,7.82
2023-02-12T14:02:06.878Z,5.50
2023-02-12T14:04:46.655Z,7.57
2023-02-12T14:07:16.927Z,9.02
2023-02-12T14:09:46.739Z,7.38
2023-02-12T14:12:25.581Z,6.20
2023-02-12T14:14:54.826Z,7.90
2023-02-12T14:17:33.601Z,8.05
2023-02-12T14:20:22.221Z,8.40
2023-02-12T14:22:48.742Z,8.15
2023-02-12T14:25:15.420Z,7.72
2023-02-12T14:27:44.984Z,7.03
2023-02-12T14:30:11.767Z,5.82
2023-02-12T14:32:50.360Z,5.25
2023-02-12T14:35:36.731Z,8.25
2023-02-12T14:38:24.567Z,5.80
2023-02-12T14:40:52.682Z,7.40
2023-02-12T14:43:27.652Z,7.93
2023-02-12T14:45:56.383Z,5.03
2023-02-12T14:48:51.198Z,6.22
2023-02-12T14:51:41.936Z,6.70
2023-02-12T14:54:25.679Z,7.67
2023-02-12T14:56:55.580Z,5.57
2023-02-12T14:59:26.110Z,7.07
2023-02-12T15:01:54.667Z,6.68
2023-02-12T15:04:30.829Z,8.00
2023-02-12T15:07:05.224Z,7.77
2023-02-12T15:09:52.301Z,8.20
2023-02-12T15:12:33.328Z,8.10
2023-02-12T15:15:24.009Z,7.22
2023-02-12T15:18:03.653Z,7.70
2023-02-12T15:20:37.673Z,8.30
2023-02-12T15:23:38.848Z,8.32
2023-02-12T15:26:10.659Z,6.47
2023-02-12T15:28:38.387Z,7.60
2023-02-12T15:31:10.555Z,8.55
2023-02-12T15:33:41.706Z,7.97
2023-02-12T15:36:10.777Z,9.07
2023-02-12T15:38:41.631Z,5.80
2023-02-12T15:41:09.556Z,7.97
2023-02-12T15:43:42.010Z,7.32
2023-02-12T15:46:17.365Z,7.70
2023-02-12T15:48:44.762Z,7.65
2023-02-12T15:51:25.411Z,8.40
2023-02-12T15:53:52.813Z,7.72
2023-02-12T15:56:22.183Z,4.35
2023-02-12T15:58:52.359Z,6.10
2023-02-12T16:01:21.932Z,6.88
2023-02-12T16:03:54.298Z,6.75
2023-02-12T16:06:26.474Z,6.53
2023-02-12T16:09:02.202Z,5.68
2023-02-12T16:11:30.896Z,5.43
2023-02-12T16:14:01.646Z,6.68
2023-02-12T16:16:30.515Z,7.72
2023-02-12T16:19:06.904Z,6.90
2023-02-12T16:21:37.887Z,7.22
2023-02-12T16:24:19.481Z,7.03
2023-02-12T16:26:47.697Z,7.25
2023-02-12T16:29:17.858Z,7.47
2023-02-12T16:32:01.649Z,7.47
2023-02-12T16:34:36.420Z,7.63
2023-02-12T16:37:30.011Z,8.17
2023-02-12T16:39:56.669Z,8.05
2023-02-12T16:42:29.537Z,7.47
2023-02-12T16:44:56.499Z,8.77
2023-02-12T16:47:25.103Z,8.20
2023-02-12T16:49:55.891Z,9.00
2023-02-12T16:52:37.880Z,8.45
2023-02-12T16:55:07.790Z,8.88
2023-02-12T16:57:34.368Z,9.35
2023-02-12T17:00:00.968Z,9.20
2023-02-12T17:02:27.868Z,8.43
2023-02-12T17:04:56.752Z,8.35
2023-02-12T17:07:28.262Z,8.52
2023-02-12T17:09:55.154Z,8.18
2023-02-12T17:12:21.762Z,8.70
2023-02-12T17:14:48.467Z,9.47
2023-02-12T17:17:15.160Z,9.25
2023-02-12T17:19:41.776Z,9.23
2023-02-12T17:22:18.768Z,7.82
2023-02-12T17:24:51.198Z,8.32
2023-02-12T17:27:18.974Z,8.63
2023-02-12T17:29:45.593Z,9.48
2023-02-12T17:32:12.815Z,10.23
2023-02-12T17:34:48.130Z,9.88
2023-02-12T17:37:16.986Z,10.13
2023-02-12T17:39:43.535Z,10.67
2023-02-12T17:42:10.121Z,9.75
2023-02-12T17:44:36.689Z,9.23
2023-02-12T17:47:03.538Z,10.05
2023-02-12T17:49:31.365Z,9.52
2023-02-12T17:51:58.047Z,10.03
2023-02-12T17:54:24.639Z,10.88
2023-02-12T17:56:51.664Z,9.50
2023-02-12T17:59:19.300Z,9.48
2023-02-12T18:01:45.924Z,10.18
2023-02-12T18:04:12.533Z,9.07
2023-02-12T18:06:39.328Z,10.48
2023-02-12T18:09:06.132Z,10.77
2023-02-12T18:11:33.193Z,10.32
2023-02-12T18:14:00.528Z,10.40
2023-02-12T18:16:33.452Z,10.47
2023-02-12T18:19:01.663Z,10.25
2023-02-12T18:21:28.360Z,10.95
2023-02-12T18:23:55.030Z,10.77
2023-02-12T18:26:22.865Z,11.38
2023-02-12T18:28:49.858Z,10.77
2023-02-12T18:31:19.247Z,11.60
2023-02-12T18:33:46.230Z,11.30
2023-02-12T18:36:15.658Z,11.75
2023-02-12T18:38:43.602Z,11.63
2023-02-12T18:41:20.467Z,11.80
2023-02-12T18:43:47.107Z,12.13
2023-02-12T18:46:16.751Z,10.98
2023-02-12T18:48:44.047Z,11.82
2023-02-12T18:51:14.678Z,12.10
2023-02-12T18:53:41.131Z,12.70
2023-02-12T18:56:09.795Z,19.85
2023-02-12T18:58:37.284Z,13.20
2023-02-12T19:01:15.643Z,13.73
2023-02-12T19:03:43.059Z,13.48
2023-02-12T19:06:10.028Z,13.83
2023-02-12T19:08:36.678Z,13.55
2023-02-12T19:11:05.502Z,13.35
2023-02-12T19:13:32.033Z,13.55
2023-02-12T19:15:58.795Z,12.43
2023-02-12T19:18:25.673Z,11.33
2023-02-12T19:20:52.286Z,11.85
2023-02-12T19:23:18.803Z,13.80
2023-02-12T19:25:45.848Z,12.98
2023-02-12T19:28:13.005Z,12.00
2023-02-12T19:30:41.233Z,12.47
2023-02-12T19:33:08.707Z,13.95
2023-02-12T19:35:35.275Z,17.55
2023-02-12T19:38:02.032Z,16.92
2023-02-12T19:40:28.848Z,15.05
2023-02-12T19:42:55.465Z,15.40
2023-02-12T19:45:22.247Z,15.50
2023-02-12T19:47:53.265Z,16.20
2023-02-12T19:50:20.000Z,15.50
2023-02-12T19:52:46.511Z,17.58
2023-02-12T19:55:13.059Z,17.57
2023-02-12T19:57:41.033Z,17.85
2023-02-12T20:00:10.850Z,17.98
2023-02-12T20:02:37.646Z,17.33
2023-02-12T20:05:04.356Z,16.25
2023-02-12T20:07:31.177Z,15.77
2023-02-12T20:09:57.735Z,16.75
2023-02-12T20:12:24.275Z,15.52
2023-02-12T20:14:50.831Z,18.60
2023-02-12T20:17:18.610Z,16.45
2023-02-12T20:19:45.607Z,19.17
2023-02-12T20:22:12.180Z,16.48
2023-02-12T20:24:40.289Z,17.13
2023-02-12T20:27:06.955Z,18.40
2023-02-12T20:29:33.513Z,17.98
2023-02-12T20:32:00.232Z,15.60
2023-02-12T20:34:26.909Z,15.25
2023-02-12T20:36:54.451Z,17.38
2023-02-12T20:39:21.735Z,15.32
2023-02-12T20:41:49.345Z,15.77
2023-02-12T20:44:19.944Z,17.17
2023-02-12T20:46:47.782Z,18.40
2023-02-12T20:49:15.778Z,17.40
2023-02-12T20:51:42.297Z,17.67
2023-02-12T20:54:09.460Z,17.92
2023-02-12T20:56:37.212Z,19.17
2023-02-12T20:59:05.656Z,17.77
2023-02-12T21:01:35.108Z,18.88
2023-02-12T21:04:08.318Z,18.65
2023-02-12T21:06:40.266Z,17.73
2023-02-12T21:09:09.808Z,16.60
2023-02-12T21:11:37.396Z,16.10
2023-02-12T21:14:20.882Z,16.35
2023-02-12T21:16:48.903Z,16.35
2023-02-12T21:19:16.110Z,16.95
2023-02-12T21:21:46.826Z,15.93
2023-02-12T21:24:15.953Z,16.40
2023-02-12T21:26:43.396Z,15.98
2023-02-12T21:29:10.220Z,16.83
2023-02-12T21:31:39.316Z,16.55
2023-02-12T21:34:08.042Z,16.03
2023-02-12T21:36:40.538Z,15.20
2023-02-12T21:39:10.064Z,14.77
2023-02-12T21:41:39.177Z,15.00
2023-02-12T21:44:08.194Z,14.52
2023-02-12T21:46:41.360Z,14.90
2023-02-12T21:49:08.159Z,14.77
2023-02-12T21:51:40.560Z,15.93
2023-02-12T21:54:11.405Z,15.60
2023-02-12T21:56:39.723Z,15.23
2023-02-12T21:59:06.533Z,15.33
2023-02-12T22:01:36.013Z,14.57
2023-02-12T22:04:04.928Z,16.17
2023-02-12T22:06:31.533Z,14.52
2023-02-12T22:09:03.870Z,14.60
2023-02-12T22:11:30.626Z,14.77
2023-02-12T22:13:57.123Z,14.90
2023-02-12T22:16:26.937Z,13.15
2023-02-12T22:18:55.919Z,13.75
2023-02-12T22:21:24.503Z,15.02
2023-02-12T22:23:51.864Z,13.43
2023-02-12T22:26:25.093Z,13.50
2023-02-12T22:28:57.306Z,13.35
2023-02-12T22:31:28.555Z,13.68
2023-02-12T22:33:57.758Z,13.73
2023-02-12T22:36:25.174Z,13.47
2023-02-12T22:38:55.179Z,13.98
2023-02-12T22:41:22.694Z,13.68
2023-02-12T22:43:50.035Z,13.98
2023-02-12T22:46:17.375Z,14.65
2023-02-12T22:48:44.630Z,13.63
2023-02-12T22:51:26.747Z,12.52
2023-02-12T22:53:54.598Z,12.98
2023-02-12T22:56:21.541Z,13.07
2023-02-12T22:58:48.877Z,13.75
2023-02-12T23:01:18.159Z,13.67
2023-02-12T23:03:46.442Z,13.48
2023-02-12T23:06:15.426Z,12.63
2023-02-12T23:08:42.404Z,12.98
2023-02-12T23:11:09.946Z,12.80
2023-02-12T23:13:37.202Z,13.40
2023-02-12T23:16:04.739Z,13.32
2023-02-12T23:18:31.709Z,13.32
2023-02-12T23:20:58.910Z,12.85
2023-02-12T23:23:25.869Z,11.65
2023-02-12T23:25:54.438Z,12.27
2023-02-12T23:28:21.737Z,13.30
2023-02-12T23:30:49.768Z,13.00
2023-02-12T23:33:16.611Z,12.40
2023-02-12T23:35:44.667Z,11.52
2023-02-12T23:38:11.454Z,12.60
2023-02-12T23:40:38.473Z,10.88
2023-02-12T23:43:05.102Z,13.27
2023-02-12T23:45:31.791Z,11.93
2023-02-12T23:47:58.804Z,12.30
2023-02-12T23:50:25.507Z,11.80
2023-02-12T23:52:52.267Z,12.18
2023-02-12T23:55:20.316Z,12.30
2023-02-12T23:57:47.981Z,11.63
